SBVT/VIX METAR and TAF weather

Enter ICAO airport designator
Station Type Date Time Source
SBVT METAR 2018/12/17 16:00 UTC NOAA

SBVT 171600Z 02011KT 9999 SCT030 31/21 Q1017


Station Type Date Time Source
SBVT Decoded METAR 2018/12/17 16:00 UTC NOAA

Vitoria Aeroporto , Brazil (SBVT) 20-16S 040-17W 4M
Dec 17, 2018 - 11:00 AM EST / 2018.12.17 1600 UTC
Wind: from the NNE (020 degrees) at 13 MPH (11 KT):0
Visibility: greater than 7 mile(s):0
Sky conditions: partly cloudy
Temperature: 87 F (31 C)
Dew Point: 69 F (21 C)
Relative Humidity: 55%
Pressure (altimeter): 30.03 in. Hg (1017 hPa)
ob: SBVT 171600Z 02011KT 9999 SCT030 31/21 Q1017
cycle: 16

Station Type Date Time Source
SBVT TAF 2018/12/17 18:12 UTC NOAA

TAF SBVT 171600Z 1718/1818 04013KT 9999 SCT030 TN25/1808Z TX31/1814Z
RMK PCN


Example: see airport list